createdAt,value
2022-11-06T00:00:46.467Z,1.80
2022-11-06T00:03:14.619Z,1.70
2022-11-06T00:06:01.777Z,1.57
2022-11-06T00:08:33.692Z,1.57
2022-11-06T00:11:04.272Z,1.40
2022-11-06T00:13:32.387Z,1.50
2022-11-06T00:16:06.740Z,1.60
2022-11-06T00:18:36.023Z,1.40
2022-11-06T00:21:10.713Z,2.10
2022-11-06T00:23:40.172Z,2.80
2022-11-06T00:26:10.572Z,2.70
2022-11-06T00:28:39.267Z,3.90
2022-11-06T00:31:12.370Z,3.23
2022-11-06T00:33:41.120Z,3.57
2022-11-06T00:36:21.243Z,3.53
2022-11-06T00:38:52.557Z,3.83
2022-11-06T00:41:22.211Z,4.33
2022-11-06T00:43:51.633Z,7.67
2022-11-06T00:46:21.934Z,10.80
2022-11-06T00:48:51.497Z,9.90
2022-11-06T00:51:22.986Z,9.33
2022-11-06T00:53:57.008Z,11.60
2022-11-06T00:56:26.607Z,9.40
2022-11-06T00:58:56.648Z,8.70
2022-11-06T01:01:30.303Z,9.20
2022-11-06T01:04:01.970Z,8.23
2022-11-06T01:06:33.376Z,6.03
2022-11-06T01:09:02.174Z,6.23
2022-11-06T01:11:52.300Z,4.70
2022-11-06T01:14:24.190Z,5.10
2022-11-06T01:16:54.524Z,4.30
2022-11-06T01:19:24.733Z,4.87
2022-11-06T01:21:54.394Z,6.87
2022-11-06T01:24:25.573Z,4.80
2022-11-06T01:29:43.780Z,3.97
2022-11-06T01:32:13.862Z,3.47
2022-11-06T01:34:42.431Z,3.90
2022-11-06T01:37:14.570Z,3.40
2022-11-06T01:39:44.266Z,2.87
2022-11-06T01:42:13.920Z,2.33
2022-11-06T01:45:38.832Z,2.77
2022-11-06T01:48:09.214Z,2.67
2022-11-06T01:50:38.669Z,2.73
2022-11-06T01:53:08.401Z,2.07
2022-11-06T01:55:41.805Z,2.33
2022-11-06T01:58:16.092Z,1.83
2022-11-06T02:00:45.679Z,1.80
2022-11-06T02:03:16.033Z,1.60
2022-11-06T02:05:45.185Z,1.90
2022-11-06T02:08:17.791Z,1.73
2022-11-06T02:10:47.061Z,1.80
2022-11-06T02:13:33.672Z,1.43
2022-11-06T02:16:19.558Z,1.03
2022-11-06T02:19:13.618Z,1.30
2022-11-06T02:22:22.195Z,1.20
2022-11-06T02:25:19.433Z,1.00
2022-11-06T02:27:57.153Z,1.47
2022-11-06T02:30:25.731Z,1.13
2022-11-06T02:33:01.784Z,1.43
2022-11-06T02:35:36.638Z,1.27
2022-11-06T02:38:11.337Z,1.23
2022-11-06T02:40:46.530Z,1.37
2022-11-06T02:43:20.144Z,1.10
2022-11-06T02:45:56.834Z,1.30
2022-11-06T02:48:32.402Z,1.30
2022-11-06T02:51:06.531Z,1.40
2022-11-06T02:53:39.217Z,1.63
2022-11-06T02:56:13.651Z,1.30
2022-11-06T02:58:50.576Z,1.50
2022-11-06T03:01:29.162Z,1.50
2022-11-06T03:04:04.626Z,1.00
2022-11-06T03:06:43.231Z,1.20
2022-11-06T03:09:18.631Z,1.73
2022-11-06T03:11:59.357Z,1.17
2022-11-06T03:14:37.657Z,1.20
2022-11-06T03:17:16.775Z,1.60
2022-11-06T03:19:54.452Z,1.40
2022-11-06T03:22:31.861Z,1.30
2022-11-06T03:25:14.194Z,1.37
2022-11-06T03:27:53.787Z,1.27
2022-11-06T03:30:23.835Z,1.23
2022-11-06T03:33:00.193Z,1.40
2022-11-06T03:35:36.516Z,1.30
2022-11-06T03:38:11.923Z,1.53
2022-11-06T03:40:47.011Z,1.20
2022-11-06T03:43:21.072Z,1.43
2022-11-06T03:45:54.709Z,1.57
2022-11-06T03:48:32.953Z,1.10
2022-11-06T03:51:09.305Z,1.40
2022-11-06T03:53:45.446Z,1.30
2022-11-06T03:56:19.601Z,1.70
2022-11-06T03:58:51.714Z,1.40
2022-11-06T04:01:30.379Z,1.57
2022-11-06T04:04:07.032Z,1.53
2022-11-06T04:06:42.401Z,1.23
2022-11-06T04:09:33.912Z,1.87
2022-11-06T04:12:23.748Z,1.30
2022-11-06T04:14:58.976Z,1.60
2022-11-06T04:17:31.268Z,1.30
2022-11-06T04:20:03.545Z,1.40
2022-11-06T04:22:47.239Z,1.87
2022-11-06T04:26:02.959Z,1.30
2022-11-06T04:28:41.199Z,1.37
2022-11-06T04:31:18.030Z,1.20
2022-11-06T04:33:58.813Z,1.40
2022-11-06T04:36:41.612Z,1.17
2022-11-06T04:39:22.516Z,1.90
2022-11-06T04:42:05.128Z,2.00
2022-11-06T04:44:39.798Z,1.83
2022-11-06T04:47:11.009Z,1.30
2022-11-06T04:49:44.608Z,1.50
2022-11-06T04:52:19.857Z,1.40
2022-11-06T04:54:49.832Z,1.10
2022-11-06T04:57:19.197Z,1.23
2022-11-06T04:59:47.946Z,1.87
2022-11-06T05:02:16.138Z,1.57
2022-11-06T05:04:46.384Z,1.10
2022-11-06T05:07:16.374Z,1.27
2022-11-06T05:09:45.601Z,1.50
2022-11-06T05:12:14.482Z,1.23
2022-11-06T05:14:42.756Z,1.20
2022-11-06T05:17:11.237Z,1.23
2022-11-06T05:19:39.428Z,1.13
2022-11-06T05:22:29.036Z,1.40
2022-11-06T05:24:57.622Z,1.20
2022-11-06T05:27:26.913Z,1.40
2022-11-06T05:29:55.084Z,1.30
2022-11-06T05:32:23.239Z,1.23
2022-11-06T05:34:51.692Z,1.30
2022-11-06T05:37:21.127Z,1.37
2022-11-06T05:39:50.129Z,1.50
2022-11-06T05:42:18.724Z,1.77
2022-11-06T05:44:46.837Z,1.70
2022-11-06T05:47:15.338Z,1.30
2022-11-06T05:49:44.306Z,1.40
2022-11-06T05:52:13.051Z,1.03
2022-11-06T05:54:43.237Z,1.20
2022-11-06T05:57:11.684Z,1.13
2022-11-06T05:59:40.594Z,1.10
2022-11-06T06:02:09.361Z,1.27
2022-11-06T06:04:38.224Z,1.10
2022-11-06T06:07:06.417Z,2.03
2022-11-06T06:09:34.464Z,1.83
2022-11-06T06:12:05.093Z,1.40
2022-11-06T06:14:34.213Z,10.83
2022-11-06T06:17:02.376Z,11.37
2022-11-06T06:19:31.216Z,10.93
2022-11-06T06:21:59.702Z,4.87
2022-11-06T06:24:28.337Z,1.80
2022-11-06T06:26:56.944Z,1.70
2022-11-06T06:29:26.442Z,1.70
2022-11-06T06:31:55.043Z,1.17
2022-11-06T06:34:23.447Z,1.27
2022-11-06T06:36:53.960Z,1.30
2022-11-06T06:39:22.810Z,1.00
2022-11-06T06:41:51.970Z,1.37
2022-11-06T06:44:20.092Z,1.17
2022-11-06T06:46:49.687Z,1.37
2022-11-06T06:49:18.727Z,1.20
2022-11-06T06:51:49.299Z,1.70
2022-11-06T06:54:17.970Z,1.53
2022-11-06T06:56:46.176Z,1.47
2022-11-06T06:59:15.028Z,1.40
2022-11-06T07:01:43.925Z,1.23
2022-11-06T07:04:13.988Z,1.43
2022-11-06T07:06:43.998Z,2.00
2022-11-06T07:09:12.203Z,1.37
2022-11-06T07:11:40.707Z,1.20
2022-11-06T07:14:09.870Z,1.40
2022-11-06T07:16:38.075Z,1.40
2022-11-06T07:19:06.255Z,1.23
2022-11-06T07:21:35.741Z,1.33
2022-11-06T07:24:03.891Z,1.47
2022-11-06T07:26:32.109Z,1.30
2022-11-06T07:29:00.412Z,1.10
2022-11-06T07:31:29.259Z,1.40
2022-11-06T07:33:58.099Z,1.20
2022-11-06T07:36:26.253Z,1.73
2022-11-06T07:38:55.719Z,2.20
2022-11-06T07:41:24.910Z,7.63
2022-11-06T07:43:53.368Z,3.43
2022-11-06T07:46:21.494Z,2.57
2022-11-06T07:48:50.135Z,1.70
2022-11-06T07:51:19.250Z,2.90
2022-11-06T07:53:47.491Z,3.17
2022-11-06T07:56:18.261Z,3.43
2022-11-06T07:58:47.819Z,22.00
2022-11-06T08:01:19.022Z,6.27
2022-11-06T08:03:47.377Z,6.00
2022-11-06T08:06:15.539Z,3.20
2022-11-06T08:08:44.226Z,2.53
2022-11-06T08:11:14.157Z,2.23
2022-11-06T08:13:45.091Z,4.57
2022-11-06T08:16:15.659Z,1.93
2022-11-06T08:18:44.939Z,1.80
2022-11-06T08:21:13.034Z,2.80
2022-11-06T08:23:41.454Z,4.57
2022-11-06T08:26:09.974Z,3.80
2022-11-06T08:28:38.270Z,4.50
2022-11-06T08:31:09.803Z,5.33
2022-11-06T08:33:39.714Z,4.90
2022-11-06T08:36:10.300Z,6.10
2022-11-06T08:38:38.433Z,5.07
2022-11-06T08:41:08.295Z,2.70
2022-11-06T08:43:37.224Z,2.20
2022-11-06T08:46:08.039Z,2.57
2022-11-06T08:48:37.650Z,1.77
2022-11-06T08:51:07.002Z,3.80
2022-11-06T08:53:36.212Z,2.63
2022-11-06T08:56:06.266Z,3.27
2022-11-06T08:58:35.416Z,1.97
2022-11-06T09:01:03.887Z,1.77
2022-11-06T09:03:33.785Z,2.10
2022-11-06T09:06:01.956Z,2.13
2022-11-06T09:08:30.648Z,2.17
2022-11-06T09:11:00.159Z,1.53
2022-11-06T09:13:28.317Z,1.20
2022-11-06T09:15:56.659Z,1.40
2022-11-06T09:18:24.758Z,1.90
2022-11-06T09:20:57.767Z,1.50
2022-11-06T09:23:26.705Z,1.93
2022-11-06T09:25:55.140Z,1.30
2022-11-06T09:28:23.545Z,1.80
2022-11-06T09:30:51.795Z,1.70
2022-11-06T09:33:21.162Z,1.53
2022-11-06T09:35:49.561Z,2.90
2022-11-06T09:38:19.741Z,1.80
2022-11-06T09:40:53.894Z,2.30
2022-11-06T09:44:16.853Z,2.23
2022-11-06T09:46:42.795Z,1.97
2022-11-06T09:49:23.699Z,2.00
2022-11-06T09:51:59.015Z,2.27
2022-11-06T09:54:35.840Z,1.60
2022-11-06T09:57:13.051Z,1.43
2022-11-06T09:59:42.746Z,1.43
2022-11-06T10:02:28.547Z,1.60
2022-11-06T10:05:10.237Z,2.00
2022-11-06T10:07:42.472Z,1.23
2022-11-06T10:10:20.452Z,1.60
2022-11-06T10:13:17.478Z,2.10
2022-11-06T10:15:56.288Z,2.40
2022-11-06T10:18:38.754Z,1.40
2022-11-06T10:21:16.531Z,1.40
2022-11-06T10:23:52.357Z,0.87
2022-11-06T10:26:34.440Z,1.97
2022-11-06T10:29:33.255Z,1.00
2022-11-06T10:32:29.433Z,0.80
2022-11-06T10:35:03.885Z,1.13
2022-11-06T10:37:42.152Z,1.70
2022-11-06T10:40:19.943Z,1.37
2022-11-06T10:43:02.748Z,2.40
2022-11-06T10:45:32.156Z,1.00
2022-11-06T10:48:11.797Z,0.80
2022-11-06T10:50:51.689Z,1.60
2022-11-06T10:53:35.966Z,1.33
2022-11-06T10:56:53.686Z,1.43
2022-11-06T10:59:23.297Z,1.10
2022-11-06T11:01:52.078Z,0.77
2022-11-06T11:04:21.477Z,2.20
2022-11-06T11:06:49.978Z,1.40
2022-11-06T11:09:31.338Z,0.70
2022-11-06T11:12:00.375Z,2.77
2022-11-06T11:14:33.095Z,1.00
2022-11-06T11:17:02.849Z,1.27
2022-11-06T11:19:41.609Z,1.00
2022-11-06T11:22:28.913Z,0.80
2022-11-06T11:25:03.583Z,0.80
2022-11-06T11:27:37.772Z,1.10
2022-11-06T11:30:21.786Z,1.00
2022-11-06T11:32:50.683Z,0.80
2022-11-06T11:35:26.307Z,0.80
2022-11-06T11:38:08.119Z,2.15
2022-11-06T11:40:39.302Z,0.73
2022-11-06T11:43:27.100Z,0.77
2022-11-06T11:46:19.223Z,0.90
2022-11-06T11:48:52.198Z,0.73
2022-11-06T11:51:34.994Z,1.70
2022-11-06T11:54:17.168Z,7.55
2022-11-06T11:57:04.603Z,1.70
2022-11-06T11:59:42.684Z,4.00
2022-11-06T12:02:27.377Z,2.00
2022-11-06T12:05:02.335Z,2.00
2022-11-06T12:07:39.729Z,1.17
2022-11-06T12:10:30.646Z,0.90
2022-11-06T12:13:01.350Z,1.03
2022-11-06T12:15:39.908Z,0.80
2022-11-06T12:18:16.770Z,1.10
2022-11-06T12:20:56.529Z,1.00
2022-11-06T12:23:32.482Z,0.80
2022-11-06T12:26:13.422Z,1.10
2022-11-06T12:28:46.090Z,1.10
2022-11-06T12:31:26.731Z,0.93
2022-11-06T12:34:06.763Z,1.33
2022-11-06T12:36:45.115Z,0.90
2022-11-06T12:39:20.744Z,0.83
2022-11-06T12:41:54.563Z,1.27
2022-11-06T12:44:23.015Z,1.00
2022-11-06T12:47:01.779Z,0.90
2022-11-06T12:50:05.533Z,1.00
2022-11-06T12:52:48.881Z,2.30
2022-11-06T12:55:25.723Z,1.60
2022-11-06T12:58:15.049Z,2.03
2022-11-06T13:01:01.783Z,1.23
2022-11-06T13:03:58.947Z,1.20
2022-11-06T13:07:04.234Z,1.27
2022-11-06T13:09:42.965Z,1.00
2022-11-06T13:12:22.977Z,1.00
2022-11-06T13:15:07.588Z,0.90
2022-11-06T13:17:50.665Z,0.90
2022-11-06T13:20:30.522Z,0.80
2022-11-06T13:23:11.668Z,0.80
2022-11-06T13:25:54.318Z,0.93
2022-11-06T13:28:31.833Z,0.70
2022-11-06T13:31:04.601Z,1.50
2022-11-06T13:33:41.088Z,3.53
2022-11-06T13:36:11.026Z,3.73
2022-11-06T13:38:49.089Z,3.60
2022-11-06T13:41:24.002Z,2.30
2022-11-06T13:43:59.955Z,2.50
2022-11-06T13:46:39.331Z,3.10
2022-11-06T13:49:23.666Z,3.20
2022-11-06T13:51:56.942Z,4.30
2022-11-06T13:54:51.762Z,3.20
2022-11-06T13:58:00.212Z,2.90
2022-11-06T14:00:40.993Z,3.53
2022-11-06T14:03:54.086Z,6.47
2022-11-06T14:06:25.978Z,4.47
2022-11-06T14:08:58.065Z,3.97
2022-11-06T14:11:32.423Z,4.10
2022-11-06T14:14:04.815Z,3.43
2022-11-06T14:16:35.037Z,3.00
2022-11-06T14:19:10.757Z,4.93
2022-11-06T14:21:50.278Z,2.80
2022-11-06T14:24:42.599Z,3.10
2022-11-06T14:28:06.276Z,3.67
2022-11-06T14:31:10.971Z,6.63
2022-11-06T14:34:01.945Z,3.60
2022-11-06T14:36:38.031Z,4.70
2022-11-06T14:39:14.364Z,3.20
2022-11-06T14:42:00.519Z,2.80
2022-11-06T14:44:51.866Z,2.60
2022-11-06T14:47:34.149Z,1.40
2022-11-06T14:50:09.690Z,2.40
2022-11-06T14:52:46.307Z,1.97
2022-11-06T14:55:31.773Z,2.23
2022-11-06T14:58:18.755Z,14.70
2022-11-06T15:00:55.694Z,10.13
2022-11-06T15:03:33.291Z,4.70
2022-11-06T15:06:08.216Z,3.40
2022-11-06T15:09:01.801Z,3.10
2022-11-06T15:11:57.848Z,6.30
2022-11-06T15:14:56.346Z,7.13
2022-11-06T15:17:29.784Z,7.60
2022-11-06T15:20:23.227Z,5.70
2022-11-06T15:23:08.186Z,8.23
2022-11-06T15:25:42.263Z,5.17
2022-11-06T15:28:19.407Z,7.03
2022-11-06T15:30:53.058Z,5.27
2022-11-06T15:33:34.455Z,3.83
2022-11-06T15:36:09.157Z,3.50
2022-11-06T15:38:43.489Z,3.07
2022-11-06T15:41:19.068Z,4.13
2022-11-06T15:43:50.705Z,3.70
2022-11-06T15:46:22.952Z,4.10
2022-11-06T15:49:09.510Z,3.90
2022-11-06T15:51:41.276Z,4.23
2022-11-06T15:54:15.267Z,3.87
2022-11-06T15:56:45.124Z,4.63
2022-11-06T15:59:17.303Z,6.13
2022-11-06T16:01:49.403Z,5.70
2022-11-06T16:04:24.072Z,8.77
2022-11-06T16:06:55.035Z,12.30
2022-11-06T16:12:15.920Z,4.30
2022-11-06T16:14:47.235Z,3.93
2022-11-06T16:17:25.250Z,3.83
2022-11-06T16:19:59.707Z,3.80
2022-11-06T16:22:34.434Z,3.70
2022-11-06T16:25:07.454Z,3.77
2022-11-06T16:27:41.889Z,3.80
2022-11-06T16:30:25.253Z,3.77
2022-11-06T16:32:53.969Z,4.10
2022-11-06T16:35:35.026Z,3.60
2022-11-06T16:38:41.531Z,4.87
2022-11-06T16:41:38.121Z,4.90
2022-11-06T16:44:30.752Z,6.03
2022-11-06T16:47:15.785Z,4.07
2022-11-06T16:49:52.882Z,6.03
2022-11-06T16:52:32.509Z,4.30
2022-11-06T16:55:05.683Z,3.47
2022-11-06T16:57:43.672Z,4.43
2022-11-06T17:00:29.164Z,5.67
2022-11-06T17:03:01.881Z,6.20
2022-11-06T17:05:33.775Z,6.03
2022-11-06T17:08:23.710Z,5.87
2022-11-06T17:10:53.176Z,8.50
2022-11-06T17:13:23.457Z,15.70
2022-11-06T17:15:56.172Z,10.77
2022-11-06T17:18:28.441Z,9.20
2022-11-06T17:21:00.093Z,7.03
2022-11-06T17:23:32.444Z,7.00
2022-11-06T17:26:03.484Z,7.33
2022-11-06T17:28:32.241Z,8.97
2022-11-06T17:31:00.594Z,7.60
2022-11-06T17:33:30.501Z,7.93
2022-11-06T17:35:59.730Z,8.30
2022-11-06T17:38:30.218Z,9.23
2022-11-06T17:40:58.362Z,7.07
2022-11-06T17:43:26.500Z,10.57
2022-11-06T17:45:56.145Z,7.97
2022-11-06T17:48:24.595Z,10.20
2022-11-06T17:51:10.486Z,16.53
2022-11-06T17:53:41.446Z,20.30
2022-11-06T17:56:10.028Z,12.77
2022-11-06T17:58:38.692Z,8.60
2022-11-06T18:01:09.637Z,8.97
2022-11-06T18:03:44.699Z,14.50
2022-11-06T18:06:15.642Z,15.43
2022-11-06T18:08:45.619Z,17.50
2022-11-06T18:11:14.745Z,17.33
2022-11-06T18:13:45.309Z,15.97
2022-11-06T18:16:18.402Z,14.17
2022-11-06T18:18:46.962Z,12.90
2022-11-06T18:21:17.265Z,14.90
2022-11-06T18:23:46.744Z,18.40
2022-11-06T18:26:15.527Z,17.90
2022-11-06T18:28:44.759Z,16.43
2022-11-06T18:31:13.052Z,19.53
2022-11-06T18:33:43.581Z,17.67
2022-11-06T18:36:13.113Z,14.17
2022-11-06T18:38:43.312Z,12.97
2022-11-06T18:41:15.715Z,12.70
2022-11-06T18:43:44.612Z,14.63
2022-11-06T18:46:16.211Z,19.07
2022-11-06T18:48:45.095Z,18.40
2022-11-06T18:51:32.435Z,18.97
2022-11-06T18:54:07.324Z,25.20
2022-11-06T18:56:38.457Z,33.87
2022-11-06T18:59:10.353Z,38.37
2022-11-06T19:01:39.020Z,23.80
2022-11-06T19:04:11.016Z,18.43
2022-11-06T19:06:40.968Z,9.67
2022-11-06T19:09:11.000Z,17.60
2022-11-06T19:11:40.785Z,16.23
2022-11-06T19:14:09.956Z,10.87
2022-11-06T19:16:38.843Z,4.43
2022-11-06T19:19:07.640Z,3.20
2022-11-06T19:21:36.780Z,2.33
2022-11-06T19:24:06.651Z,1.63
2022-11-06T19:26:36.956Z,2.87
2022-11-06T19:29:08.670Z,1.97
2022-11-06T19:31:39.326Z,1.17
2022-11-06T19:34:10.254Z,1.73
2022-11-06T19:36:38.343Z,1.30
2022-11-06T19:39:07.644Z,1.80
2022-11-06T19:41:35.814Z,1.30
2022-11-06T19:44:03.927Z,1.83
2022-11-06T19:46:35.978Z,2.00
2022-11-06T19:49:05.681Z,2.87
2022-11-06T19:51:37.735Z,3.23
2022-11-06T19:54:07.759Z,3.70
2022-11-06T19:56:36.388Z,2.37
2022-11-06T19:59:25.059Z,1.07
2022-11-06T20:01:54.595Z,3.37
2022-11-06T20:04:22.766Z,2.57
2022-11-06T20:06:51.778Z,4.90
2022-11-06T20:09:19.895Z,3.20
2022-11-06T20:11:47.952Z,1.70
2022-11-06T20:14:21.610Z,1.87
2022-11-06T20:16:50.053Z,1.50
2022-11-06T20:19:19.805Z,2.20
2022-11-06T20:21:48.675Z,1.80
2022-11-06T20:24:17.111Z,1.83
2022-11-06T20:26:45.556Z,1.60
2022-11-06T20:29:13.692Z,1.70
2022-11-06T20:31:42.577Z,1.93
2022-11-06T20:34:11.118Z,2.87
2022-11-06T20:36:40.609Z,1.50
2022-11-06T20:39:09.776Z,2.10
2022-11-06T20:41:38.067Z,1.70
2022-11-06T20:44:06.567Z,1.53
2022-11-06T20:46:34.742Z,1.40
2022-11-06T20:49:03.290Z,3.17
2022-11-06T20:51:42.990Z,2.30
2022-11-06T20:54:23.126Z,1.87
2022-11-06T20:56:51.657Z,1.73
2022-11-06T20:59:20.121Z,1.50
2022-11-06T21:01:48.818Z,1.53
2022-11-06T21:04:17.307Z,1.20
2022-11-06T21:06:45.539Z,0.83
2022-11-06T21:09:13.923Z,1.23
2022-11-06T21:11:44.064Z,1.40
2022-11-06T21:14:12.550Z,1.53
2022-11-06T21:16:41.415Z,1.53
2022-11-06T21:19:10.164Z,1.07
2022-11-06T21:21:38.426Z,0.97
2022-11-06T21:24:10.796Z,0.80
2022-11-06T21:26:39.870Z,1.97
2022-11-06T21:29:12.037Z,3.53
2022-11-06T21:31:48.419Z,4.17
2022-11-06T21:34:18.934Z,1.43
2022-11-06T21:36:48.429Z,1.30
2022-11-06T21:39:19.283Z,3.83
2022-11-06T21:41:49.109Z,4.00
2022-11-06T21:44:19.672Z,3.93
2022-11-06T21:46:48.691Z,5.33
2022-11-06T21:49:16.996Z,3.07
2022-11-06T21:51:45.435Z,2.07
2022-11-06T21:54:32.353Z,0.90
2022-11-06T21:57:00.522Z,0.80
2022-11-06T21:59:31.682Z,1.20
2022-11-06T22:02:00.086Z,1.47
2022-11-06T22:04:29.293Z,2.23
2022-11-06T22:06:57.377Z,2.77
2022-11-06T22:09:26.840Z,1.93
2022-11-06T22:11:55.008Z,1.90
2022-11-06T22:14:23.603Z,1.20
2022-11-06T22:16:54.076Z,1.20
2022-11-06T22:19:22.246Z,1.10
2022-11-06T22:21:51.089Z,1.70
2022-11-06T22:24:19.277Z,2.33
2022-11-06T23:10:42.734Z,1.10
2022-11-06T23:13:12.541Z,1.20
2022-11-06T23:15:41.395Z,1.10
2022-11-06T23:18:09.540Z,1.20
2022-11-06T23:20:39.592Z,1.60
2022-11-06T23:23:07.870Z,1.03
2022-11-06T23:25:36.710Z,0.97
2022-11-06T23:28:07.085Z,1.20
2022-11-06T23:30:36.469Z,1.20
2022-11-06T23:33:04.729Z,1.60
2022-11-06T23:35:33.294Z,1.10
2022-11-06T23:38:01.550Z,1.30
2022-11-06T23:40:30.429Z,1.20
2022-11-06T23:42:59.017Z,1.10
2022-11-06T23:45:46.553Z,0.90
2022-11-06T23:48:15.900Z,1.33
2022-11-06T23:50:47.304Z,1.13
2022-11-06T23:53:17.209Z,1.00
2022-11-06T23:55:46.022Z,0.90
2022-11-06T23:58:14.496Z,0.83
